Francis, Utah
Current Conditions -  °F | °C
As of 1:53 AM on Thursday 23 Oct 2014 (Local Time) from KEVW Reporting Station
Clear Clear  
Wind Chill: 34°   Ceiling: Unl
Heat Index: 39°   Visibility: 10mi
Dew Point: 21°   Wind: 7mph
Humidity: 49%   Direction: 120°ESE
Pressure: 30.23"   Gusts: NA
Location:  40.8065°N, 110.723°W
Report Text: KEVW 230753Z AUTO 12006KT 10SM CLR 04/M06 A3023 RMK AO2 SLP194 T00391061 TSNO
Loading
Personal Weather Stations






























Interactive Weather Map
Tropical Storm Tracking
New forecast layout! Learn more

10-Day Weather Forecast

Advertisements
Track Severe Weather on mobile